Time;durP1;ratioP1;P1;durP2;ratioP2;P2;SDS_P1;SDS_P2;PMS_P1;PMS_P2;Temp;Humidity;BMP_temperature;BMP_pressure;BME280_temperature;BME280_humidity;BME280_pressure;Samples;Min_cycle;Max_cycle;Signal;HPM_P1;HPM_P2
2023/05/19 00:01:51;;;;;;;8.88;5.45;;;;;;;-148.88;89.85;-17125.47;4966732;28;20061;-87
2023/05/19 00:04:17;;;;;;;9.75;5.32;;;;;;;-148.88;89.28;-17125.47;4958074;28;20051;-86
2023/05/19 00:06:43;;;;;;;7.65;3.03;;;;;;;-148.88;90.03;-17125.47;4958190;28;20508;-86
2023/05/19 00:09:10;;;;;;;6.05;3.50;;;;;;;-148.88;90.15;-17125.47;4958743;28;20378;-85
2023/05/19 00:11:38;;;;;;;9.65;6.00;;;;;;;-148.88;90.87;-17125.47;4957762;28;20054;-84
2023/05/19 00:14:06;;;;;;;9.43;5.80;;;;;;;-148.88;90.66;-17125.47;4957554;28;20043;-86
2023/05/19 00:16:32;;;;;;;8.52;5.50;;;;;;;-148.88;90.37;-17125.47;4974409;28;20034;-86
2023/05/19 00:19:01;;;;;;;9.40;5.70;;;;;;;-148.88;90.21;-17125.47;4957268;28;20117;-84
2023/05/19 00:21:28;;;;;;;9.00;5.50;;;;;;;-148.88;90.61;-17125.47;4974730;28;20058;-85
2023/05/19 00:23:53;;;;;;;9.00;5.50;;;;;;;-148.88;90.56;-17125.47;4974520;28;20027;-85
2023/05/19 00:26:20;;;;;;;7.22;5.25;;;;;;;-148.88;90.04;-17125.47;4956568;28;20485;-86
2023/05/19 00:28:46;;;;;;;8.30;3.42;;;;;;;-148.88;90.58;-17125.47;4957145;28;20033;-85
2023/05/19 00:31:11;;;;;;;9.45;3.70;;;;;;;-148.88;90.86;-17125.47;4957258;28;20019;-86
2023/05/19 00:33:36;;;;;;;9.05;5.88;;;;;;;-148.88;90.39;-17125.47;4957151;28;20027;-85
2023/05/19 00:36:03;;;;;;;11.73;5.57;;;;;;;-148.88;89.54;-17125.47;4956587;28;20058;-85
2023/05/19 00:38:30;;;;;;;8.95;3.72;;;;;;;-148.88;91.17;-17125.47;4974343;28;20192;-86
2023/05/19 00:40:56;;;;;;;9.65;6.20;;;;;;;-148.88;91.75;-17125.47;4974054;28;20023;-84
2023/05/19 00:43:22;;;;;;;7.25;3.58;;;;;;;-148.88;92.46;-17125.47;4974033;28;20033;-85
2023/05/19 00:45:47;;;;;;;10.77;6.22;;;;;;;-148.88;92.08;-17125.47;4974424;28;20501;-85
2023/05/19 00:48:13;;;;;;;8.30;4.03;;;;;;;-148.88;92.66;-17125.47;4956842;28;20030;-83
2023/05/19 00:50:39;;;;;;;11.98;5.70;;;;;;;-148.88;92.55;-17125.47;4974027;28;20485;-85
2023/05/19 00:53:05;;;;;;;9.18;5.60;;;;;;;-148.88;92.63;-17125.47;4975289;28;20061;-86
2023/05/19 00:55:32;;;;;;;8.82;5.70;;;;;;;-148.88;92.46;-17125.47;4978259;28;20090;-86
2023/05/19 00:57:57;;;;;;;12.35;5.85;;;;;;;-148.88;91.90;-17125.47;4960007;28;20125;-85
2023/05/19 01:00:23;;;;;;;9.68;3.40;;;;;;;-148.88;93.17;-17125.47;4960347;28;20050;-87
2023/05/19 01:02:49;;;;;;;9.23;3.80;;;;;;;-148.88;92.02;-17125.47;4958949;28;20520;-86
2023/05/19 01:05:15;;;;;;;6.93;3.42;;;;;;;-148.88;92.17;-17125.47;4956903;28;20077;-86
2023/05/19 01:07:41;;;;;;;11.15;6.07;;;;;;;-148.88;93.06;-17125.47;4958131;28;20027;-86
2023/05/19 01:10:07;;;;;;;8.25;3.55;;;;;;;-148.88;93.72;-17125.47;4974844;28;20042;-85
2023/05/19 01:12:33;;;;;;;10.52;5.60;;;;;;;-148.88;93.92;-17125.47;4956969;28;20023;-86
2023/05/19 01:14:59;;;;;;;10.38;5.35;;;;;;;-148.88;94.24;-17125.47;4956536;28;20019;-85
2023/05/19 01:17:44;;;;;;;9.23;3.58;;;;;;;-148.88;93.00;-17125.47;4956538;28;20034;-86
2023/05/19 01:20:15;;;;;;;9.38;6.55;;;;;;;-148.88;94.47;-17125.47;4956355;28;20034;-85
2023/05/19 01:22:56;;;;;;;7.63;3.15;;;;;;;-148.88;94.30;-17125.47;4957113;28;20058;-86
2023/05/19 01:25:36;;;;;;;11.05;3.80;;;;;;;-148.88;93.96;-17125.47;4956275;28;20023;-85
2023/05/19 01:28:14;;;;;;;10.82;5.95;;;;;;;-148.88;93.21;-17125.47;4956149;28;20022;-85
2023/05/19 01:30:47;;;;;;;10.00;3.58;;;;;;;-148.88;94.21;-17125.47;4973625;28;20497;-86
2023/05/19 01:33:14;;;;;;;7.78;3.70;;;;;;;-148.88;94.29;-17125.47;4956218;28;20034;-85
2023/05/19 01:35:41;;;;;;;10.40;3.58;;;;;;;-148.88;94.21;-17125.47;5003907;22;20116;-77
2023/05/19 01:38:09;;;;;;;6.97;3.38;;;;;;;-148.88;94.84;-17125.47;4995766;28;20485;-76
2023/05/19 01:40:36;;;;;;;6.95;3.47;;;;;;;-148.88;94.77;-17125.47;4996811;28;20058;-76
2023/05/19 01:43:03;;;;;;;9.48;6.00;;;;;;;-148.88;93.99;-17125.47;4979340;28;20032;-76
2023/05/19 01:45:30;;;;;;;7.43;3.80;;;;;;;-148.88;94.71;-17125.47;4996698;28;20100;-76
2023/05/19 01:47:59;;;;;;;7.47;3.65;;;;;;;-148.88;95.43;-17125.47;4996809;28;20026;-77
2023/05/19 01:50:27;;;;;;;10.80;6.50;;;;;;;-148.88;95.15;-17125.47;4979251;28;20018;-77
2023/05/19 01:52:53;;;;;;;6.57;3.40;;;;;;;-148.88;95.74;-17125.47;4996640;28;20026;-77
2023/05/19 01:55:20;;;;;;;10.05;3.70;;;;;;;-148.88;96.56;-17125.47;4996566;28;20022;-77
2023/05/19 01:58:04;;;;;;;14.02;6.88;;;;;;;-148.88;96.92;-17125.47;4996830;28;20473;-76
2023/05/19 02:00:38;;;;;;;9.57;3.75;;;;;;;-148.88;96.12;-17125.47;4997010;28;20057;-77
2023/05/19 02:03:06;;;;;;;7.55;4.03;;;;;;;-148.88;96.64;-17125.47;4997256;28;20105;-76
2023/05/19 02:05:53;;;;;;;8.93;4.25;;;;;;;-148.88;98.50;-17125.47;4996965;28;20022;-76
2023/05/19 02:08:24;;;;;;;8.90;4.07;;;;;;;-148.88;99.69;-17125.47;4996453;28;20022;-78
2023/05/19 02:11:05;;;;;;;9.23;4.20;;;;;;;-148.88;99.18;-17125.47;4996588;28;20109;-76
2023/05/19 02:13:35;;;;;;;8.25;4.60;;;;;;;-148.88;99.52;-17125.47;4978760;28;20026;-76
2023/05/19 02:16:04;;;;;;;8.68;4.32;;;;;;;-148.88;98.20;-17125.47;4996062;28;20034;-76
2023/05/19 02:18:32;;;;;;;9.82;7.35;;;;;;;-148.88;99.17;-17125.47;4996389;28;20034;-76
2023/05/19 02:20:57;;;;;;;6.40;3.72;;;;;;;-148.88;99.28;-17125.47;4995997;28;20041;-76
2023/05/19 02:23:23;;;;;;;7.93;4.07;;;;;;;-148.88;99.09;-17125.47;4978360;28;20030;-76
2023/05/19 02:25:48;;;;;;;9.75;4.35;;;;;;;-148.88;98.97;-17125.47;4995814;28;20030;-77
2023/05/19 02:28:14;;;;;;;10.48;4.45;;;;;;;-148.88;99.28;-17125.47;4995666;28;20459;-77
2023/05/19 02:30:39;;;;;;;13.15;4.40;;;;;;;-148.88;99.21;-17125.47;4996097;28;20031;-77
2023/05/19 02:33:05;;;;;;;8.10;4.22;;;;;;;-148.88;99.86;-17125.47;4995860;28;20036;-77
2023/05/19 02:35:30;;;;;;;10.68;4.07;;;;;;;-148.88;99.09;-17125.47;4995737;28;20038;-77
2023/05/19 02:37:56;;;;;;;8.38;4.20;;;;;;;-148.88;99.47;-17125.47;4995997;28;20025;-76
2023/05/19 02:40:24;;;;;;;7.57;3.88;;;;;;;-148.88;99.52;-17125.47;4995675;28;20439;-77
2023/05/19 02:42:49;;;;;;;8.38;4.40;;;;;;;-148.88;99.57;-17125.47;4996227;28;20439;-76
2023/05/19 02:45:15;;;;;;;10.35;4.28;;;;;;;-148.88;99.91;-17125.47;4995832;28;20481;-76
2023/05/19 02:47:40;;;;;;;9.60;6.32;;;;;;;-148.88;99.35;-17125.47;4995262;28;20057;-76
2023/05/19 02:50:06;;;;;;;8.20;3.75;;;;;;;-148.88;98.90;-17125.47;4977937;28;20026;-76
2023/05/19 02:52:32;;;;;;;9.63;5.97;;;;;;;-148.88;98.20;-17125.47;4977878;28;20112;-76
2023/05/19 02:54:57;;;;;;;11.75;6.50;;;;;;;-148.88;98.12;-17125.47;4995272;28;20110;-76
2023/05/19 02:57:23;;;;;;;8.43;3.35;;;;;;;-148.88;99.08;-17125.47;4977985;28;20080;-76
2023/05/19 02:59:48;;;;;;;6.78;3.53;;;;;;;-148.88;98.99;-17125.47;4995485;28;20432;-77
2023/05/19 03:02:13;;;;;;;11.25;4.43;;;;;;;-148.88;99.08;-17125.47;4978074;28;20023;-77
2023/05/19 03:04:41;;;;;;;7.97;3.92;;;;;;;-148.88;98.40;-17125.47;4995084;28;20493;-76
2023/05/19 03:07:08;;;;;;;11.20;7.10;;;;;;;-148.88;100.00;-17125.47;4977683;28;20030;-77
2023/05/19 03:09:36;;;;;;;10.02;4.18;;;;;;;-148.88;99.52;-17125.47;4977560;28;20481;-77
2023/05/19 03:12:02;;;;;;;16.27;7.43;;;;;;;-148.88;99.24;-17125.47;4977557;28;20033;-76
2023/05/19 03:14:28;;;;;;;12.73;4.35;;;;;;;-148.88;99.52;-17125.47;4977551;28;20085;-76
2023/05/19 03:16:54;;;;;;;8.13;4.38;;;;;;;-148.88;98.80;-17125.47;4995398;28;20489;-77
2023/05/19 03:19:20;;;;;;;9.32;4.50;;;;;;;-148.88;99.71;-17125.47;4994879;28;20018;-76
2023/05/19 03:21:46;;;;;;;11.45;4.22;;;;;;;-148.88;100.00;-17125.47;4994851;28;20056;-76
2023/05/19 03:24:12;;;;;;;7.00;4.18;;;;;;;-148.88;100.00;-17125.47;4994721;28;20466;-77
2023/05/19 03:26:37;;;;;;;9.25;4.70;;;;;;;-148.88;99.86;-17125.47;4977221;28;20049;-77
2023/05/19 03:29:02;;;;;;;10.02;7.38;;;;;;;-148.88;99.97;-17125.47;4994594;28;20504;-77
2023/05/19 03:31:29;;;;;;;9.88;4.85;;;;;;;-148.88;100.00;-17125.47;4994805;28;20026;-77
2023/05/19 03:33:56;;;;;;;8.32;4.32;;;;;;;-148.88;100.00;-17125.47;4994884;28;20037;-77
2023/05/19 03:36:22;;;;;;;10.63;4.65;;;;;;;-148.88;100.00;-17125.47;4994403;28;20126;-77
2023/05/19 03:38:48;;;;;;;8.93;4.70;;;;;;;-148.88;100.00;-17125.47;4995128;28;20117;-78
2023/05/19 03:41:13;;;;;;;9.63;4.60;;;;;;;-148.88;100.00;-17125.47;4997793;28;20081;-78
2023/05/19 03:43:39;;;;;;;8.32;4.57;;;;;;;-148.88;100.00;-17125.47;4979013;28;20034;-78
2023/05/19 03:46:04;;;;;;;8.93;4.93;;;;;;;-148.88;100.00;-17125.47;4979276;28;20030;-77
2023/05/19 03:48:30;;;;;;;11.40;5.55;;;;;;;-148.88;100.00;-17125.47;4995230;28;20101;-77
2023/05/19 03:50:55;;;;;;;7.20;4.32;;;;;;;-148.88;100.00;-17125.47;4994767;28;20030;-77
2023/05/19 03:53:20;;;;;;;11.00;4.78;;;;;;;-148.88;100.00;-17125.47;4994931;28;20030;-77
2023/05/19 03:55:47;;;;;;;12.80;8.00;;;;;;;-148.88;100.00;-17125.47;4994558;28;20032;-77
2023/05/19 03:58:13;;;;;;;8.55;4.15;;;;;;;-148.88;100.00;-17125.47;4994272;28;20089;-77
2023/05/19 04:00:39;;;;;;;9.13;3.88;;;;;;;-148.88;100.00;-17125.47;4993526;28;20030;-77
2023/05/19 04:03:04;;;;;;;10.10;3.92;;;;;;;-148.88;100.00;-17125.47;4994296;28;20030;-77
2023/05/19 04:05:30;;;;;;;10.30;4.35;;;;;;;-148.88;100.00;-17125.47;4994011;28;20061;-77
2023/05/19 04:07:55;;;;;;;9.77;4.35;;;;;;;-148.88;100.00;-17125.47;4977008;28;20057;-76
2023/05/19 04:10:21;;;;;;;10.38;4.65;;;;;;;-148.88;100.00;-17125.47;4994234;28;20026;-77
2023/05/19 04:12:46;;;;;;;10.95;4.70;;;;;;;-148.88;100.00;-17125.47;4994205;28;20087;-77
2023/05/19 04:15:12;;;;;;;12.95;4.70;;;;;;;-148.88;100.00;-17125.47;4993789;28;20029;-77
2023/05/19 04:17:38;;;;;;;11.45;4.50;;;;;;;-148.88;100.00;-17125.47;4993816;28;20026;-77
2023/05/19 04:20:07;;;;;;;9.18;4.50;;;;;;;-148.88;100.00;-17125.47;4993989;28;20034;-77
2023/05/19 04:22:33;;;;;;;9.05;4.68;;;;;;;-148.88;100.00;-17125.47;4993762;28;20026;-77
2023/05/19 04:24:59;;;;;;;7.32;4.53;;;;;;;-148.88;100.00;-17125.47;4993787;28;20018;-77
2023/05/19 04:27:26;;;;;;;9.40;4.55;;;;;;;-148.88;100.00;-17125.47;4994134;28;20481;-76
2023/05/19 04:29:52;;;;;;;11.38;4.25;;;;;;;-148.88;100.00;-17125.47;4976347;28;20504;-76
2023/05/19 04:32:17;;;;;;;7.60;4.43;;;;;;;-148.88;100.00;-17125.47;4993779;28;20022;-77
2023/05/19 04:34:46;;;;;;;10.40;4.68;;;;;;;-148.88;100.00;-17125.47;4994010;28;20018;-77
2023/05/19 04:37:17;;;;;;;9.40;4.57;;;;;;;-148.88;100.00;-17125.47;4993491;28;20040;-77
2023/05/19 04:39:44;;;;;;;17.17;5.32;;;;;;;-148.88;100.00;-17125.47;4993500;28;20030;-77
2023/05/19 04:42:10;;;;;;;12.18;4.80;;;;;;;-148.88;100.00;-17125.47;4993612;28;20022;-77
2023/05/19 04:44:40;;;;;;;8.65;4.45;;;;;;;-148.88;100.00;-17125.47;4976163;28;20037;-77
2023/05/19 04:47:07;;;;;;;8.30;4.47;;;;;;;-148.88;100.00;-17125.47;4976231;28;20022;-76
2023/05/19 04:49:38;;;;;;;12.05;4.82;;;;;;;-148.88;100.00;-17125.47;4976034;28;20102;-77
2023/05/19 04:52:12;;;;;;;9.32;4.32;;;;;;;-148.88;100.00;-17125.47;4976167;28;20081;-77
2023/05/19 04:54:38;;;;;;;13.85;5.13;;;;;;;-148.88;100.00;-17125.47;4994030;28;20101;-77
2023/05/19 04:57:04;;;;;;;9.00;4.47;;;;;;;-148.88;100.00;-17125.47;4993529;28;20034;-77
2023/05/19 04:59:30;;;;;;;10.35;4.68;;;;;;;-148.88;100.00;-17125.47;4993773;28;20035;-77
2023/05/19 05:01:55;;;;;;;10.55;4.28;;;;;;;-148.88;100.00;-17125.47;4993414;28;20168;-77
2023/05/19 05:04:22;;;;;;;12.88;5.15;;;;;;;-148.88;100.00;-17125.47;4993600;28;20022;-77
2023/05/19 05:06:48;;;;;;;8.70;4.90;;;;;;;-148.88;100.00;-17125.47;4993704;28;20493;-77
2023/05/19 05:09:14;;;;;;;9.38;4.57;;;;;;;-148.88;100.00;-17125.47;4976097;28;20026;-77
2023/05/19 05:11:40;;;;;;;9.10;4.63;;;;;;;-148.88;100.00;-17125.47;4995306;28;20030;-77
2023/05/19 05:14:06;;;;;;;16.05;5.53;;;;;;;-148.88;100.00;-17125.47;4997351;28;20037;-77
2023/05/19 05:16:32;;;;;;;9.23;4.30;;;;;;;-148.88;100.00;-17125.47;4997309;28;20385;-77
2023/05/19 05:19:00;;;;;;;14.70;5.13;;;;;;;-148.88;100.00;-17125.47;4979816;28;20057;-77
2023/05/19 05:21:27;;;;;;;10.95;5.18;;;;;;;-148.88;100.00;-17125.47;4997157;28;20373;-77
2023/05/19 05:23:52;;;;;;;13.68;5.35;;;;;;;-148.88;100.00;-17125.47;4979651;28;20564;-77
2023/05/19 05:26:21;;;;;;;10.90;5.15;;;;;;;-148.88;100.00;-17125.47;4996950;28;20059;-77
2023/05/19 05:28:48;;;;;;;8.98;4.82;;;;;;;-148.88;100.00;-17125.47;4997127;28;20033;-77
2023/05/19 05:31:13;;;;;;;12.30;5.00;;;;;;;-148.88;100.00;-17125.47;4997086;28;20018;-77
2023/05/19 05:33:39;;;;;;;14.32;8.85;;;;;;;-148.88;100.00;-17125.47;4997119;28;20037;-77
2023/05/19 05:36:05;;;;;;;11.15;5.35;;;;;;;-148.88;100.00;-17125.47;4996837;28;20038;-77
2023/05/19 05:38:30;;;;;;;14.70;5.90;;;;;;;-148.88;100.00;-17125.47;4979404;28;20109;-77
2023/05/19 05:40:55;;;;;;;11.10;4.85;;;;;;;-148.88;100.00;-17125.47;4997098;28;20037;-77
2023/05/19 05:43:21;;;;;;;12.63;5.18;;;;;;;-148.88;100.00;-17125.47;4997119;28;20109;-77
2023/05/19 05:45:46;;;;;;;16.83;5.55;;;;;;;-148.88;100.00;-17125.47;4996729;28;20061;-77
2023/05/19 05:48:12;;;;;;;10.23;5.25;;;;;;;-148.88;100.00;-17125.47;4997015;28;20170;-77
2023/05/19 05:50:37;;;;;;;11.27;5.20;;;;;;;-148.88;100.00;-17125.47;4996657;28;20477;-77
2023/05/19 05:53:05;;;;;;;12.27;5.40;;;;;;;-148.88;100.00;-17125.47;4996482;28;20026;-77
2023/05/19 05:55:31;;;;;;;20.95;5.25;;;;;;;-148.88;100.00;-17125.47;4996623;28;20068;-77
2023/05/19 05:57:57;;;;;;;10.13;4.88;;;;;;;-148.88;100.00;-17125.47;4979015;28;20027;-77
2023/05/19 06:00:23;;;;;;;18.05;5.68;;;;;;;-148.88;100.00;-17125.47;4978988;28;20026;-77
2023/05/19 06:02:51;;;;;;;9.10;4.28;;;;;;;-148.88;100.00;-17125.47;4996646;28;20101;-77
2023/05/19 06:05:16;;;;;;;8.40;4.40;;;;;;;-148.88;100.00;-17125.47;4978971;28;20112;-77
2023/05/19 06:07:42;;;;;;;10.00;5.00;;;;;;;-148.88;100.00;-17125.47;4996481;28;20426;-77
2023/05/19 06:10:08;;;;;;;15.50;5.35;;;;;;;-148.88;100.00;-17125.47;4996531;28;20041;-77
2023/05/19 06:12:34;;;;;;;10.43;4.85;;;;;;;-148.88;100.00;-17125.47;4979097;28;20030;-77
2023/05/19 06:15:01;;;;;;;14.90;8.57;;;;;;;-148.88;100.00;-17125.47;4978801;28;20114;-77
2023/05/19 06:17:27;;;;;;;7.65;3.90;;;;;;;-148.88;100.00;-17125.47;4996111;28;20027;-77
2023/05/19 06:19:53;;;;;;;12.57;5.57;;;;;;;-148.88;100.00;-17125.47;4978670;28;20081;-77
2023/05/19 06:22:18;;;;;;;10.90;7.63;;;;;;;-148.88;100.00;-17125.47;4995590;28;20058;-77
2023/05/19 06:24:44;;;;;;;9.05;4.55;;;;;;;-148.88;100.00;-17125.47;4995877;28;20030;-77
2023/05/19 06:27:09;;;;;;;8.63;4.57;;;;;;;-148.88;100.00;-17125.47;4996214;28;20080;-77
2023/05/19 06:29:34;;;;;;;12.07;4.78;;;;;;;-148.88;100.00;-17125.47;4996664;28;20370;-77
2023/05/19 06:32:00;;;;;;;9.45;4.18;;;;;;;-148.88;100.00;-17125.47;4996424;28;20030;-77
2023/05/19 06:34:25;;;;;;;8.30;4.25;;;;;;;-148.88;100.00;-17125.47;4995952;28;20027;-77
2023/05/19 06:36:51;;;;;;;12.90;7.85;;;;;;;-148.88;100.00;-17125.47;4978336;28;20094;-77
2023/05/19 06:39:16;;;;;;;9.85;4.20;;;;;;;-148.88;99.22;-17125.47;4995638;28;20041;-77
2023/05/19 06:41:41;;;;;;;11.20;4.45;;;;;;;-148.88;100.00;-17125.47;4978332;28;20044;-77
2023/05/19 06:44:10;;;;;;;11.60;7.57;;;;;;;-148.88;100.00;-17125.47;4996283;28;20030;-77
2023/05/19 06:46:35;;;;;;;8.73;6.32;;;;;;;-148.88;99.01;-17125.47;4995531;28;20477;-77
2023/05/19 06:49:00;;;;;;;13.20;7.00;;;;;;;-148.88;99.21;-17125.47;4995541;28;20033;-77
2023/05/19 06:51:26;;;;;;;11.80;6.90;;;;;;;-148.88;100.00;-17125.47;4995470;28;20022;-77
2023/05/19 06:53:51;;;;;;;11.25;3.90;;;;;;;-148.88;97.69;-17125.47;4995424;28;20022;-77
2023/05/19 06:56:17;;;;;;;16.27;6.93;;;;;;;-148.88;99.15;-17125.47;4978056;28;20076;-77
2023/05/19 06:58:43;;;;;;;10.40;6.53;;;;;;;-148.88;95.35;-17125.47;4995691;28;20482;-77
2023/05/19 07:01:09;;;;;;;10.38;4.47;;;;;;;-148.88;95.94;-17125.47;4995925;28;20030;-77
2023/05/19 07:03:34;;;;;;;9.93;6.05;;;;;;;-148.88;95.32;-17125.47;4977852;28;20126;-77
2023/05/19 07:06:00;;;;;;;9.25;4.47;;;;;;;-148.88;95.80;-17125.47;4977768;28;20256;-77
2023/05/19 07:08:26;;;;;;;10.25;6.18;;;;;;;-148.88;93.62;-17125.47;4995214;28;20482;-77
2023/05/19 07:10:52;;;;;;;10.65;6.47;;;;;;;-148.88;93.92;-17125.47;4995227;28;20022;-77
2023/05/19 07:13:20;;;;;;;12.23;6.50;;;;;;;-148.88;95.70;-17125.47;4995099;28;20495;-77
2023/05/19 07:15:47;;;;;;;11.65;6.65;;;;;;;-148.88;96.27;-17125.47;4995186;28;20026;-77
2023/05/19 07:18:13;;;;;;;10.27;5.75;;;;;;;-148.88;94.70;-17125.47;4977652;28;20022;-77
2023/05/19 07:20:38;;;;;;;12.90;6.13;;;;;;;-148.88;93.77;-17125.47;4994853;28;20037;-77
2023/05/19 07:23:04;;;;;;;11.52;6.15;;;;;;;-148.88;93.97;-17125.47;4995494;28;20034;-77
2023/05/19 07:25:29;;;;;;;10.27;6.40;;;;;;;-148.88;96.35;-17125.47;4994870;28;20030;-77
2023/05/19 07:27:55;;;;;;;11.95;6.00;;;;;;;-148.88;91.00;-17125.47;4994888;28;20026;-77
2023/05/19 07:30:21;;;;;;;11.45;4.07;;;;;;;-148.88;92.88;-17125.47;4977411;28;20030;-77
2023/05/19 07:32:46;;;;;;;9.80;5.60;;;;;;;-148.88;89.68;-17125.47;4994960;28;20041;-77
2023/05/19 07:35:12;;;;;;;12.48;5.97;;;;;;;-148.88;91.58;-17125.47;4993824;28;20037;-77
2023/05/19 07:37:37;;;;;;;9.68;5.38;;;;;;;-148.88;90.69;-17125.47;4995082;28;20030;-77
2023/05/19 07:40:03;;;;;;;10.63;5.68;;;;;;;-148.88;92.35;-17125.47;4977205;28;20030;-78
2023/05/19 07:42:29;;;;;;;12.65;5.75;;;;;;;-148.88;91.48;-17125.47;4994734;28;20100;-77
2023/05/19 07:44:54;;;;;;;10.32;5.55;;;;;;;-148.88;91.51;-17125.47;4994645;28;20465;-77
2023/05/19 07:47:20;;;;;;;11.07;5.55;;;;;;;-148.88;95.01;-17125.47;4994823;28;20072;-77
2023/05/19 07:49:46;;;;;;;10.02;4.40;;;;;;;-148.88;87.77;-17125.47;4995816;28;20109;-77
2023/05/19 07:52:11;;;;;;;11.73;4.90;;;;;;;-148.88;88.64;-17125.47;4980371;28;20135;-79
2023/05/19 07:54:36;;;;;;;8.73;4.65;;;;;;;-148.88;86.33;-17125.47;4999649;28;20044;-79
2023/05/19 07:57:08;;;;;;;7.22;3.70;;;;;;;-148.88;83.44;-17125.47;5111699;27;20381;-76
2023/05/19 07:59:33;;;;;;;10.43;4.30;;;;;;;-148.88;81.06;-17125.47;5109741;28;20036;-75
2023/05/19 08:01:59;;;;;;;9.75;3.80;;;;;;;-148.88;79.08;-17125.47;5110917;28;20036;-76
2023/05/19 08:04:24;;;;;;;7.88;3.45;;;;;;;-148.88;79.06;-17125.47;5111137;28;20059;-76
2023/05/19 08:06:51;;;;;;;9.68;4.35;;;;;;;-148.88;81.14;-17125.47;5110884;28;20053;-76
2023/05/19 08:09:16;;;;;;;7.32;3.97;;;;;;;-148.88;84.34;-17125.47;5109789;28;20484;-75
2023/05/19 08:11:41;;;;;;;9.48;3.78;;;;;;;-148.88;79.32;-17125.47;5109412;28;20085;-76
2023/05/19 08:14:07;;;;;;;10.32;3.22;;;;;;;-148.88;79.18;-17125.47;5110869;28;20095;-76
2023/05/19 08:16:32;;;;;;;6.53;2.95;;;;;;;-148.88;75.50;-17125.47;5110120;28;20024;-76
2023/05/19 08:19:02;;;;;;;7.60;3.22;;;;;;;-148.88;77.27;-17125.47;5109356;28;20110;-76
2023/05/19 08:21:28;;;;;;;11.52;3.25;;;;;;;-148.88;77.43;-17125.47;5109614;28;20115;-76
2023/05/19 08:23:53;;;;;;;8.80;3.60;;;;;;;-148.88;77.14;-17125.47;5110769;28;20437;-76
2023/05/19 08:26:20;;;;;;;8.32;3.50;;;;;;;-148.88;75.96;-17125.47;5110478;28;20022;-76
2023/05/19 08:28:45;;;;;;;7.00;4.07;;;;;;;-148.88;77.85;-17125.47;5109270;28;20070;-76
2023/05/19 08:31:11;;;;;;;6.30;3.50;;;;;;;-148.88;76.34;-17125.47;5109132;28;20020;-76
2023/05/19 08:33:36;;;;;;;7.70;3.30;;;;;;;-148.88;74.63;-17125.47;5111566;28;20016;-76
2023/05/19 08:36:01;;;;;;;7.15;3.00;;;;;;;-148.88;70.18;-17125.47;5110354;28;20027;-77
2023/05/19 08:38:27;;;;;;;5.03;2.70;;;;;;;-148.88;67.69;-17125.47;5110285;28;20074;-77
2023/05/19 08:40:52;;;;;;;7.25;2.75;;;;;;;-148.88;66.10;-17125.47;5108939;28;20020;-77
2023/05/19 08:43:18;;;;;;;6.18;2.85;;;;;;;-148.88;66.55;-17125.47;5108890;28;20020;-76
2023/05/19 08:45:47;;;;;;;7.82;2.50;;;;;;;-148.88;65.21;-17125.47;5110034;28;20038;-76
2023/05/19 08:48:15;;;;;;;5.03;2.47;;;;;;;-148.88;63.63;-17125.47;5109128;28;20050;-76
2023/05/19 08:50:55;;;;;;;5.43;2.42;;;;;;;-148.88;65.38;-17125.47;5110112;28;20030;-76
2023/05/19 08:53:26;;;;;;;6.35;3.28;;;;;;;-148.88;70.95;-17125.47;5108745;28;20035;-76
2023/05/19 08:55:59;;;;;;;9.15;2.95;;;;;;;-148.88;70.11;-17125.47;5108749;28;20056;-77
2023/05/19 08:58:26;;;;;;;8.25;2.88;;;;;;;-148.88;63.97;-17125.47;5110296;28;20031;-77
2023/05/19 09:00:52;;;;;;;6.07;2.40;;;;;;;-148.88;60.45;-17125.47;5110255;28;20056;-76
2023/05/19 09:03:18;;;;;;;6.85;2.40;;;;;;;-148.88;58.42;-17125.47;5110027;28;20054;-77
2023/05/19 09:05:45;;;;;;;7.28;2.78;;;;;;;-148.88;57.34;-17125.47;5109976;28;20016;-77
2023/05/19 09:08:10;;;;;;;6.75;2.95;;;;;;;-148.88;62.58;-17125.47;5096954;28;20106;-77
2023/05/19 09:10:36;;;;;;;8.23;3.58;;;;;;;-148.88;63.71;-17125.47;5096288;28;20103;-77
2023/05/19 09:13:01;;;;;;;6.70;2.72;;;;;;;-148.88;61.14;-17125.47;5096325;28;20051;-77
2023/05/19 09:15:27;;;;;;;8.52;3.47;;;;;;;-148.88;61.08;-17125.47;5096039;28;20016;-77
2023/05/19 09:18:11;;;;;;;6.90;2.80;;;;;;;-148.88;59.45;-17125.47;5096304;28;20035;-77
2023/05/19 09:20:41;;;;;;;7.45;2.70;;;;;;;-148.88;59.81;-17125.47;5095334;28;20118;-77
2023/05/19 09:23:12;;;;;;;6.20;3.00;;;;;;;-148.88;61.29;-17125.47;5096351;28;20044;-76
2023/05/19 09:25:51;;;;;;;10.40;3.70;;;;;;;-148.88;60.95;-17125.47;5096554;28;20024;-77
2023/05/19 09:28:32;;;;;;;7.75;2.55;;;;;;;-148.88;58.11;-17125.47;5096144;28;20074;-77
2023/05/19 09:31:08;;;;;;;6.28;2.00;;;;;;;-148.88;51.63;-17125.47;5096327;28;20031;-77
2023/05/19 09:33:42;;;;;;;6.25;2.22;;;;;;;-148.88;58.24;-17125.47;5095889;28;20475;-78
2023/05/19 09:36:09;;;;;;;4.35;1.95;;;;;;;-148.88;54.03;-17125.47;5094605;28;20023;-77
2023/05/19 09:38:36;;;;;;;6.95;2.42;;;;;;;-148.88;53.29;-17125.47;5095957;28;20094;-77
2023/05/19 09:41:02;;;;;;;4.43;1.85;;;;;;;-148.88;52.19;-17125.47;5094499;28;20066;-77
2023/05/19 09:43:35;;;;;;;4.88;2.67;;;;;;;-148.88;50.33;-17125.47;5095784;28;20020;-77
2023/05/19 09:46:07;;;;;;;7.03;2.30;;;;;;;-148.88;50.14;-17125.47;5095783;28;20016;-77
2023/05/19 09:48:34;;;;;;;6.30;2.90;;;;;;;-148.88;51.59;-17125.47;5095374;28;20034;-77
2023/05/19 09:51:00;;;;;;;9.00;2.80;;;;;;;-148.88;52.06;-17125.47;5095540;28;20028;-77
2023/05/19 09:53:26;;;;;;;9.52;3.33;;;;;;;-148.88;50.61;-17125.47;5097216;28;20030;-77
2023/05/19 09:55:57;;;;;;;5.50;2.67;;;;;;;-148.88;52.29;-17125.47;5096622;28;20083;-77
2023/05/19 09:58:25;;;;;;;7.20;2.90;;;;;;;-148.88;50.87;-17125.47;5095360;28;20490;-77
2023/05/19 10:00:53;;;;;;;5.43;2.70;;;;;;;-148.88;52.39;-17125.47;5096542;28;20533;-77
2023/05/19 10:03:21;;;;;;;6.43;2.58;;;;;;;-148.88;49.64;-17125.47;5096595;28;20073;-77
2023/05/19 10:05:47;;;;;;;7.40;2.60;;;;;;;-148.88;50.58;-17125.47;5095770;28;20024;-77
2023/05/19 10:08:13;;;;;;;6.78;2.90;;;;;;;-148.88;47.25;-17125.47;5097332;28;20016;-77
2023/05/19 10:10:38;;;;;;;5.20;2.72;;;;;;;-148.88;49.14;-17125.47;5098395;28;20381;-77
2023/05/19 10:13:05;;;;;;;7.22;2.50;;;;;;;-148.88;48.86;-17125.47;5097200;28;20016;-78
2023/05/19 10:15:30;;;;;;;4.72;2.22;;;;;;;-148.88;45.33;-17125.47;5099213;28;20027;-77
2023/05/19 10:17:56;;;;;;;6.78;2.78;;;;;;;-148.88;48.29;-17125.47;5096350;28;20024;-77
2023/05/19 10:20:22;;;;;;;4.95;2.50;;;;;;;-148.88;44.38;-17125.47;5094600;28;20023;-77
2023/05/19 10:22:47;;;;;;;6.40;2.30;;;;;;;-148.88;46.73;-17125.47;5095617;28;20099;-77
2023/05/19 10:25:18;;;;;;;5.88;2.70;;;;;;;-148.88;48.29;-17125.47;5094418;28;20043;-77
2023/05/19 10:27:52;;;;;;;7.25;2.92;;;;;;;-148.88;47.25;-17125.47;5095648;28;20031;-77
2023/05/19 10:30:20;;;;;;;;;;;;;;;-148.88;43.13;-17125.47;5096861;28;20469;-77
2023/05/19 10:32:48;;;;;;;7.88;2.60;;;;;;;-148.88;43.57;-17125.47;5096176;28;19908;-77
2023/05/19 10:35:31;;;;;;;6.32;2.10;;;;;;;-148.88;44.46;-17125.47;5094181;28;20016;-77
2023/05/19 10:38:20;;;;;;;8.73;2.55;;;;;;;-148.88;47.96;-17125.47;5093754;28;20035;-73
2023/05/19 10:41:18;;;;;;;6.60;2.30;;;;;;;-148.88;46.28;-17125.47;5091946;28;20112;-74
2023/05/19 10:43:44;;;;;;;7.75;2.92;;;;;;;-148.88;48.75;-17125.47;5092490;28;20040;-74
2023/05/19 10:46:10;;;;;;;7.70;2.75;;;;;;;-148.88;43.68;-17125.47;5094352;28;20538;-74
2023/05/19 10:48:35;;;;;;;8.80;2.45;;;;;;;-148.88;42.91;-17125.47;5092944;28;20024;-74
2023/05/19 10:51:01;;;;;;;5.53;2.25;;;;;;;-148.88;44.46;-17125.47;5093748;28;20028;-75
2023/05/19 10:53:33;;;;;;;7.90;2.80;;;;;;;-148.88;44.38;-17125.47;5093843;28;20081;-74
2023/05/19 10:56:02;;;;;;;6.68;2.58;;;;;;;-148.88;44.69;-17125.47;5082288;28;20024;-74
2023/05/19 10:58:43;;;;;;;5.75;2.30;;;;;;;-148.88;47.01;-17125.47;5073700;28;20079;-74
2023/05/19 11:01:13;;;;;;;6.47;2.55;;;;;;;-148.88;48.94;-17125.47;5072283;28;20025;-74
2023/05/19 11:03:47;;;;;;;6.05;2.45;;;;;;;-148.88;48.45;-17125.47;5073538;28;20354;-74
2023/05/19 11:06:35;;;;;;;5.80;2.38;;;;;;;-148.88;46.94;-17125.47;5073628;28;20027;-74